KPHX/PHX METAR and TAF weather

Enter ICAO airport designator
Station Type Date Time Source
KPHX METAR 2024/05/28 22:51 UTC NOAA

KPHX 282251Z 27004G17KT 10SM FEW250 39/M04 A2981 RMK AO2 SLP073 T03941044


Station Type Date Time Source
KPHX Decoded METAR 2024/05/28 22:51 UTC NOAA

Phoenix, Phoenix Sky Harbor International Airport, AZ, United States (KPHX) 33-26-03N 112-03-04W 336M
May 28, 2024 - 06:51 PM EDT / 2024.05.28 2251 UTC
Wind: from the W (270 degrees) at 5 MPH (4 KT) gusting to 20 MPH (17 KT):0
Visibility: 10 mile(s):0
Sky conditions: mostly clear
Temperature: 102.9 F (39.4 C)
Dew Point: 24.1 F (-4.4 C)
Relative Humidity: 6%
Pressure (altimeter): 29.81 in. Hg (1009 hPa)
ob: KPHX 282251Z 27004G17KT 10SM FEW250 39/M04 A2981 RMK AO2 SLP073 T03941044
cycle: 23

Station Type Date Time Source
KPHX TAF 2024/05/28 21:51 UTC NOAA